TimeCST,TemperatureF,Dew PointF,Humidity,Sea Level PressureIn,VisibilityMPH,Wind Direction,Wind SpeedMPH,Gust SpeedMPH,PrecipitationIn,Events,Conditions,WindDirDegrees,DateUTC
12:00 AM,70,69,95,30.00,12,NW,4.6,,,,,320,2011-10-22 06:00:00
12:00 AM,69.8,69.8,100,29.98,6.2,NW,4.6,-,N/A,,Partly Cloudy,320,2011-10-22 06:00:00
3:00 AM,69,67,92,29.97,12,NNW,5.8,,,,Partly Cloudy,330,2011-10-22 09:00:00
3:00 AM,69.8,68.0,94,29.95,6.2,NNW,5.8,-,N/A,,Scattered Clouds,330,2011-10-22 09:00:00
6:00 AM,69,67,89,30.00,12,NW,6.9,,,,,320,2011-10-22 12:00:00
6:00 AM,69.8,66.2,88,29.98,6.2,NW,6.9,-,N/A,,Mostly Cloudy,320,2011-10-22 12:00:00
7:00 AM,69.8,66.2,88,30.01,6.2,NW,9.2,-,N/A,,Mostly Cloudy,320,2011-10-22 13:00:00
8:00 AM,73.4,66.2,78,30.01,6.2,NNW,11.5,-,N/A,,Mostly Cloudy,330,2011-10-22 14:00:00
9:00 AM,76,66,63,30.04,12,NNW,9.2,,,,Scattered Clouds,340,2011-10-22 15:00:00
9:00 AM,75.2,66.2,73,30.03,6.2,NNW,9.2,-,N/A,,Scattered Clouds,340,2011-10-22 15:00:00
10:00 AM,78.8,66.2,65,30.02,6.2,NNW,9.2,-,N/A,,Mostly Cloudy,340,2011-10-22 16:00:00
11:00 AM,80.6,64.4,58,29.99,6.2,NNW,10.4,-,N/A,,Mostly Cloudy,340,2011-10-22 17:00:00
12:00 PM,82,64,44,29.97,12,NNW,10.4,,,,,340,2011-10-22 18:00:00
12:00 PM,82.4,64.4,54,29.96,6.2,NNW,10.4,-,N/A,,Scattered Clouds,340,2011-10-22 18:00:00
1:00 PM,82.4,62.6,51,29.94,6.2,NNW,11.5,-,N/A,,Scattered Clouds,340,2011-10-22 19:00:00
2:00 PM,82.4,60.8,48,29.92,6.2,NNW,11.5,-,N/A,,Scattered Clouds,340,2011-10-22 20:00:00
3:00 PM,82,62,41,29.92,12,North,10.4,,,,Mostly Cloudy,0,2011-10-22 21:00:00
3:00 PM,82.4,62.6,51,29.91,6.2,North,10.4,-,N/A,,Mostly Cloudy,360,2011-10-22 21:00:00
4:00 PM,82.4,62.6,51,29.92,6.2,North,10.4,-,N/A,,Scattered Clouds,360,2011-10-22 22:00:00
5:00 PM,82.4,62.6,51,29.93,6.2,North,9.2,-,N/A,,Mostly Cloudy,360,2011-10-22 23:00:00
6:00 PM,80,65,50,29.95,12,North,4.6,,,,,0,2011-10-23 00:00:00
6:00 PM,78.8,64.4,61,29.94,6.2,North,4.6,-,N/A,,Mostly Cloudy,360,2011-10-23 00:00:00
9:00 PM,75,66,66,29.98,12,North,5.8,,,,Partly Cloudy,350,2011-10-23 03:00:00
9:00 PM,75.2,66.2,73,29.97,6.2,North,5.8,-,N/A,,Scattered Clouds,350,2011-10-23 03:00:00